createdAt,value
2024-03-06T00:00:37.627Z,94766.00
2024-03-06T00:01:37.763Z,94769.00
2024-03-06T00:02:37.795Z,94771.00
2024-03-06T00:03:37.837Z,94770.00
2024-03-06T00:04:37.974Z,94770.00
2024-03-06T00:05:37.942Z,94770.00
2024-03-06T00:06:38.006Z,94770.00
2024-03-06T00:07:38.055Z,94772.00
2024-03-06T00:08:38.091Z,94771.00
2024-03-06T00:09:38.181Z,94770.00
2024-03-06T00:10:38.391Z,94772.00
2024-03-06T00:11:38.399Z,94773.00
2024-03-06T00:12:38.437Z,94775.00
2024-03-06T00:13:38.457Z,94775.00
2024-03-06T00:14:38.524Z,94779.00
2024-03-06T00:15:38.533Z,94776.00
2024-03-06T00:16:38.612Z,94777.00
2024-03-06T00:17:38.702Z,94779.00
2024-03-06T00:18:38.723Z,94778.00
2024-03-06T00:19:38.824Z,94778.00
2024-03-06T00:20:38.852Z,94778.00
2024-03-06T00:21:38.927Z,94779.00
2024-03-06T00:22:38.990Z,94780.00
2024-03-06T00:23:39.061Z,94783.00
2024-03-06T00:24:39.125Z,94783.00
2024-03-06T00:25:39.307Z,94786.00
2024-03-06T00:26:39.255Z,94783.00
2024-03-06T00:27:39.311Z,94785.00
2024-03-06T00:28:39.417Z,94784.00
2024-03-06T00:29:39.455Z,94785.00
2024-03-06T00:30:39.495Z,94783.00
2024-03-06T00:31:39.615Z,94780.00
2024-03-06T00:32:39.660Z,94782.00
2024-03-06T00:33:39.818Z,94787.00
2024-03-06T00:34:39.816Z,94789.00
2024-03-06T00:35:39.867Z,94790.00
2024-03-06T00:36:39.950Z,94791.00
2024-03-06T00:37:40.034Z,94791.00
2024-03-06T00:38:40.089Z,94795.00
2024-03-06T00:39:40.154Z,94793.00
2024-03-06T00:40:40.270Z,94795.00
2024-03-06T00:41:40.294Z,94794.00
2024-03-06T00:42:40.317Z,94795.00
2024-03-06T00:43:40.457Z,94793.00
2024-03-06T00:44:40.490Z,94797.00
2024-03-06T00:45:40.607Z,94797.00
2024-03-06T00:46:40.662Z,94800.00
2024-03-06T00:47:40.737Z,94800.00
2024-03-06T00:48:42.177Z,94802.00
2024-03-06T00:49:40.875Z,94803.00
2024-03-06T00:50:40.955Z,94805.00
2024-03-06T00:51:45.183Z,94807.00
2024-03-06T00:52:42.021Z,94805.00
2024-03-06T00:53:41.014Z,94804.00
2024-03-06T00:54:40.967Z,94805.00
2024-03-06T00:55:41.064Z,94803.00
2024-03-06T00:56:40.976Z,94802.00
2024-03-06T00:57:40.999Z,94800.00
2024-03-06T00:58:41.033Z,94800.00
2024-03-06T00:59:41.004Z,94798.00
2024-03-06T01:00:41.076Z,94801.00
2024-03-06T01:01:41.066Z,94799.00
2024-03-06T01:02:41.110Z,94800.00
2024-03-06T01:03:41.147Z,94799.00
2024-03-06T01:04:41.231Z,94796.00
2024-03-06T01:05:41.264Z,94799.00
2024-03-06T01:06:41.298Z,94798.00
2024-03-06T01:07:41.422Z,94798.00
2024-03-06T01:08:41.359Z,94800.00
2024-03-06T01:09:41.436Z,94801.00
2024-03-06T01:10:41.533Z,94801.00
2024-03-06T01:11:41.511Z,94802.00
2024-03-06T01:12:41.598Z,94805.00
2024-03-06T01:13:41.647Z,94804.00
2024-03-06T01:14:41.632Z,94802.00
2024-03-06T01:15:41.679Z,94802.00
2024-03-06T01:16:41.722Z,94804.00
2024-03-06T01:17:41.753Z,94804.00
2024-03-06T01:18:41.745Z,94805.00
2024-03-06T01:19:41.805Z,94806.00
2024-03-06T01:20:41.805Z,94806.00
2024-03-06T01:21:41.860Z,94808.00
2024-03-06T01:22:41.884Z,94807.00
2024-03-06T01:23:41.922Z,94806.00
2024-03-06T01:24:41.880Z,94806.00
2024-03-06T01:25:41.903Z,94807.00
2024-03-06T01:26:41.920Z,94808.00
2024-03-06T01:27:41.995Z,94808.00
2024-03-06T01:28:41.929Z,94808.00
2024-03-06T01:29:41.995Z,94806.00
2024-03-06T01:30:41.975Z,94808.00
2024-03-06T01:31:42.018Z,94809.00
2024-03-06T01:32:42.078Z,94809.00
2024-03-06T01:33:41.969Z,94810.00
2024-03-06T01:34:41.997Z,94809.00
2024-03-06T01:35:41.991Z,94809.00
2024-03-06T01:36:41.981Z,94810.00
2024-03-06T01:37:42.017Z,94813.00
2024-03-06T01:38:41.994Z,94814.00
2024-03-06T01:39:41.994Z,94813.00
2024-03-06T01:40:42.116Z,94811.00
2024-03-06T01:41:42.002Z,94813.00
2024-03-06T01:42:41.989Z,94814.00
2024-03-06T01:43:42.043Z,94815.00
2024-03-06T01:44:42.020Z,94816.00
2024-03-06T01:45:42.072Z,94815.00
2024-03-06T01:46:42.132Z,94815.00
2024-03-06T01:47:42.086Z,94815.00
2024-03-06T01:48:42.106Z,94815.00
2024-03-06T01:49:45.302Z,94816.00
2024-03-06T01:50:42.119Z,94813.00
2024-03-06T01:51:42.089Z,94813.00
2024-03-06T01:52:42.127Z,94811.00
2024-03-06T01:53:42.094Z,94813.00
2024-03-06T01:54:42.117Z,94810.00
2024-03-06T01:55:42.228Z,94811.00
2024-03-06T01:56:42.124Z,94810.00
2024-03-06T01:57:42.101Z,94807.00
2024-03-06T01:58:42.170Z,94806.00
2024-03-06T01:59:42.142Z,94805.00
2024-03-06T02:00:42.116Z,94803.00
2024-03-06T02:01:42.151Z,94803.00
2024-03-06T02:02:42.119Z,94800.00
2024-03-06T02:03:42.106Z,94800.00
2024-03-06T02:04:42.126Z,94798.00
2024-03-06T02:05:42.114Z,94798.00
2024-03-06T02:06:42.121Z,94799.00
2024-03-06T02:07:42.163Z,94801.00
2024-03-06T02:08:42.132Z,94799.00
2024-03-06T02:09:42.099Z,94800.00
2024-03-06T02:10:42.151Z,94800.00
2024-03-06T02:11:42.082Z,94800.00
2024-03-06T02:12:42.121Z,94800.00
2024-03-06T02:13:42.199Z,94800.00
2024-03-06T02:14:42.102Z,94798.00
2024-03-06T02:15:42.140Z,94799.00
2024-03-06T02:16:42.227Z,94799.00
2024-03-06T02:17:42.104Z,94796.00
2024-03-06T02:18:42.113Z,94796.00
2024-03-06T02:19:42.190Z,94797.00
2024-03-06T02:20:42.150Z,94798.00
2024-03-06T02:21:42.108Z,94799.00
2024-03-06T02:22:42.145Z,94802.00
2024-03-06T02:23:42.162Z,94803.00
2024-03-06T02:24:42.140Z,94802.00
2024-03-06T02:25:42.153Z,94802.00
2024-03-06T02:26:42.118Z,94800.00
2024-03-06T02:27:42.121Z,94800.00
2024-03-06T02:28:42.121Z,94800.00
2024-03-06T02:29:42.162Z,94800.00
2024-03-06T02:30:42.132Z,94802.00
2024-03-06T02:31:42.181Z,94801.00
2024-03-06T02:32:42.198Z,94804.00
2024-03-06T02:33:42.118Z,94805.00
2024-03-06T02:34:42.182Z,94807.00
2024-03-06T02:35:42.171Z,94805.00
2024-03-06T02:36:42.139Z,94805.00
2024-03-06T02:37:42.173Z,94804.00
2024-03-06T02:38:42.129Z,94799.00
2024-03-06T02:39:42.159Z,94798.00
2024-03-06T02:40:42.233Z,94794.00
2024-03-06T02:41:42.172Z,94793.00
2024-03-06T02:42:42.192Z,94792.00
2024-03-06T02:43:42.172Z,94790.00
2024-03-06T02:44:42.129Z,94788.00
2024-03-06T02:45:42.141Z,94785.00
2024-03-06T02:46:42.176Z,94784.00
2024-03-06T02:47:42.231Z,94783.00
2024-03-06T02:48:42.155Z,94784.00
2024-03-06T02:49:42.206Z,94785.00
2024-03-06T02:50:42.146Z,94789.00
2024-03-06T02:51:42.136Z,94791.00
2024-03-06T02:52:42.233Z,94796.00
2024-03-06T02:53:42.230Z,94798.00
2024-03-06T02:54:42.148Z,94800.00
2024-03-06T02:55:42.288Z,94803.00
2024-03-06T02:56:42.166Z,94807.00
2024-03-06T02:57:42.218Z,94807.00
2024-03-06T02:58:42.319Z,94806.00
2024-03-06T02:59:42.342Z,94809.00
2024-03-06T03:00:42.486Z,94809.00
2024-03-06T03:01:42.505Z,94811.00
2024-03-06T03:02:42.507Z,94813.00
2024-03-06T03:03:42.569Z,94815.00
2024-03-06T03:04:42.607Z,94818.00
2024-03-06T03:05:42.687Z,94816.00
2024-03-06T03:06:42.686Z,94815.00
2024-03-06T03:07:42.745Z,94816.00
2024-03-06T03:08:42.812Z,94816.00
2024-03-06T03:09:42.859Z,94817.00
2024-03-06T03:10:42.957Z,94815.00
2024-03-06T03:11:42.979Z,94815.00
2024-03-06T03:12:43.051Z,94815.00
2024-03-06T03:13:43.105Z,94814.00
2024-03-06T03:14:43.171Z,94815.00
2024-03-06T03:15:43.197Z,94814.00
2024-03-06T03:16:43.383Z,94813.00
2024-03-06T03:17:43.360Z,94814.00
2024-03-06T03:18:43.392Z,94813.00
2024-03-06T03:19:43.494Z,94812.00
2024-03-06T03:20:43.507Z,94812.00
2024-03-06T03:21:43.558Z,94812.00
2024-03-06T03:22:43.641Z,94812.00
2024-03-06T03:23:43.630Z,94812.00
2024-03-06T03:24:43.679Z,94814.00
2024-03-06T03:25:43.769Z,94815.00
2024-03-06T03:26:43.794Z,94814.00
2024-03-06T03:27:43.864Z,94814.00
2024-03-06T03:28:43.929Z,94813.00
2024-03-06T03:29:43.970Z,94813.00
2024-03-06T03:30:44.034Z,94810.00
2024-03-06T03:31:44.076Z,94813.00
2024-03-06T03:32:44.140Z,94809.00
2024-03-06T03:33:44.154Z,94813.00
2024-03-06T03:34:44.238Z,94812.00
2024-03-06T03:35:44.317Z,94812.00
2024-03-06T03:36:44.331Z,94814.00
2024-03-06T03:37:44.434Z,94812.00
2024-03-06T03:38:44.444Z,94811.00
2024-03-06T03:39:44.497Z,94808.00
2024-03-06T03:40:44.559Z,94808.00
2024-03-06T03:41:44.668Z,94807.00
2024-03-06T03:42:44.649Z,94808.00
2024-03-06T03:43:44.713Z,94809.00
2024-03-06T03:44:44.728Z,94810.00
2024-03-06T03:45:44.793Z,94809.00
2024-03-06T03:46:44.954Z,94808.00
2024-03-06T03:47:44.958Z,94804.00
2024-03-06T03:48:44.957Z,94805.00
2024-03-06T03:49:48.624Z,94804.00
2024-03-06T03:50:46.112Z,94804.00
2024-03-06T03:51:45.016Z,94801.00
2024-03-06T03:52:45.112Z,94803.00
2024-03-06T03:53:45.027Z,94802.00
2024-03-06T03:54:45.029Z,94802.00
2024-03-06T03:55:45.036Z,94801.00
2024-03-06T03:56:45.039Z,94802.00
2024-03-06T03:57:45.027Z,94801.00
2024-03-06T03:58:45.067Z,94800.00
2024-03-06T03:59:45.030Z,94800.00
2024-03-06T04:00:45.113Z,94803.00
2024-03-06T04:01:45.169Z,94802.00
2024-03-06T04:02:45.210Z,94801.00
2024-03-06T04:03:45.289Z,94804.00
2024-03-06T04:04:45.391Z,94805.00
2024-03-06T04:05:45.384Z,94806.00
2024-03-06T04:06:45.431Z,94808.00
2024-03-06T04:07:45.495Z,94809.00
2024-03-06T04:08:45.552Z,94810.00
2024-03-06T04:09:45.589Z,94811.00
2024-03-06T04:10:45.670Z,94811.00
2024-03-06T04:11:45.740Z,94810.00
2024-03-06T04:12:45.812Z,94812.00
2024-03-06T04:13:45.927Z,94810.00
2024-03-06T04:14:45.923Z,94810.00
2024-03-06T04:15:45.990Z,94810.00
2024-03-06T04:16:46.042Z,94813.00
2024-03-06T04:17:46.091Z,94814.00
2024-03-06T04:18:46.175Z,94818.00
2024-03-06T04:19:46.259Z,94820.00
2024-03-06T04:20:46.293Z,94821.00
2024-03-06T04:21:46.374Z,94822.00
2024-03-06T04:22:46.446Z,94822.00
2024-03-06T04:23:46.460Z,94821.00
2024-03-06T04:24:46.518Z,94821.00
2024-03-06T04:25:46.668Z,94822.00
2024-03-06T04:26:46.681Z,94822.00
2024-03-06T04:27:46.732Z,94823.00
2024-03-06T04:28:46.823Z,94825.00
2024-03-06T04:29:46.888Z,94826.00
2024-03-06T04:30:46.972Z,94828.00
2024-03-06T04:31:47.029Z,94827.00
2024-03-06T04:32:47.069Z,94830.00
2024-03-06T04:33:47.181Z,94831.00
2024-03-06T04:34:47.218Z,94835.00
2024-03-06T04:35:47.302Z,94834.00
2024-03-06T04:36:47.331Z,94837.00
2024-03-06T04:37:47.410Z,94838.00
2024-03-06T04:38:47.466Z,94837.00
2024-03-06T04:39:47.519Z,94839.00
2024-03-06T04:40:47.676Z,94837.00
2024-03-06T04:41:47.705Z,94840.00
2024-03-06T04:42:47.741Z,94840.00
2024-03-06T04:43:47.888Z,94838.00
2024-03-06T04:44:47.911Z,94841.00
2024-03-06T04:45:47.995Z,94846.00
2024-03-06T04:46:48.090Z,94848.00
2024-03-06T04:47:48.137Z,94852.00
2024-03-06T04:48:48.197Z,94854.00
2024-03-06T04:49:48.329Z,94856.00
2024-03-06T04:50:48.358Z,94857.00
2024-03-06T04:51:48.383Z,94857.00
2024-03-06T04:52:48.507Z,94857.00
2024-03-06T04:53:48.537Z,94857.00
2024-03-06T04:54:48.624Z,94859.00
2024-03-06T04:55:56.110Z,94857.00
2024-03-06T04:56:55.981Z,94856.00
2024-03-06T04:57:55.986Z,94857.00
2024-03-06T04:58:56.002Z,94856.00
2024-03-06T04:59:56.012Z,94854.00
2024-03-06T05:00:56.125Z,94854.00
2024-03-06T05:01:56.122Z,94854.00
2024-03-06T05:58:13.504Z,94890.00
2024-03-06T05:58:56.384Z,94893.00
2024-03-06T05:59:56.362Z,94894.00
2024-03-06T06:00:56.422Z,94899.00
2024-03-06T06:01:56.370Z,94898.00
2024-03-06T06:02:56.381Z,94900.00
2024-03-06T06:03:56.365Z,94902.00
2024-03-06T06:05:04.980Z,94903.00
2024-03-06T06:05:57.376Z,94901.00
2024-03-06T06:06:56.409Z,94899.00
2024-03-06T06:07:56.405Z,94898.00
2024-03-06T06:08:56.363Z,94896.00
2024-03-06T06:09:56.360Z,94893.00
2024-03-06T06:10:56.474Z,94892.00
2024-03-06T06:11:56.469Z,94895.00
2024-03-06T06:12:56.370Z,94893.00
2024-03-06T06:13:56.443Z,94894.00
2024-03-06T06:14:56.381Z,94896.00
2024-03-06T06:15:56.347Z,94898.00
2024-03-06T06:16:56.450Z,94897.00
2024-03-06T06:17:56.501Z,94898.00
2024-03-06T06:18:56.429Z,94900.00
2024-03-06T06:19:56.553Z,94899.00
2024-03-06T06:20:56.605Z,94902.00
2024-03-06T06:21:56.651Z,94903.00
2024-03-06T06:22:56.757Z,94907.00
2024-03-06T06:23:56.764Z,94910.00
2024-03-06T06:24:56.798Z,94910.00
2024-03-06T06:25:56.929Z,94912.00
2024-03-06T06:26:56.908Z,94915.00
2024-03-06T06:27:56.985Z,94913.00
2024-03-06T06:28:57.051Z,94913.00
2024-03-06T06:29:57.115Z,94915.00
2024-03-06T06:30:57.179Z,94916.00
2024-03-06T06:31:57.240Z,94916.00
2024-03-06T06:32:57.261Z,94919.00
2024-03-06T06:33:57.306Z,94920.00
2024-03-06T06:34:57.373Z,94922.00
2024-03-06T06:35:57.462Z,94925.00
2024-03-06T06:36:57.461Z,94924.00
2024-03-06T06:37:57.544Z,94924.00
2024-03-06T06:38:57.547Z,94927.00
2024-03-06T06:39:57.608Z,94925.00
2024-03-06T06:40:57.708Z,94924.00
2024-03-06T06:41:57.800Z,94924.00
2024-03-06T06:42:57.799Z,94925.00
2024-03-06T06:43:57.864Z,94924.00
2024-03-06T06:44:57.882Z,94926.00
2024-03-06T06:45:59.216Z,94926.00
2024-03-06T06:46:58.038Z,94928.00
2024-03-06T06:47:58.106Z,94927.00
2024-03-06T06:48:58.049Z,94926.00
2024-03-06T06:49:58.162Z,94926.00
2024-03-06T06:50:58.127Z,94930.00
2024-03-06T06:51:58.154Z,94930.00
2024-03-06T06:52:58.221Z,94931.00
2024-03-06T06:54:00.785Z,94933.00
2024-03-06T06:54:58.186Z,94934.00
2024-03-06T06:55:58.276Z,94938.00
2024-03-06T06:56:58.186Z,94937.00
2024-03-06T06:57:58.165Z,94940.00
2024-03-06T06:58:58.268Z,94939.00
2024-03-06T06:59:58.197Z,94942.00
2024-03-06T07:00:58.209Z,94946.00
2024-03-06T07:01:58.459Z,94948.00
2024-03-06T07:02:58.211Z,94951.00
2024-03-06T07:03:58.224Z,94954.00
2024-03-06T07:04:58.266Z,94954.00
2024-03-06T07:05:58.203Z,94954.00
2024-03-06T07:06:58.201Z,94952.00
2024-03-06T07:07:58.268Z,94952.00
2024-03-06T07:08:58.252Z,94952.00
2024-03-06T07:09:58.205Z,94955.00
2024-03-06T07:10:58.273Z,94955.00
2024-03-06T07:11:58.271Z,94954.00
2024-03-06T07:12:58.214Z,94955.00
2024-03-06T07:13:58.264Z,94953.00
2024-03-06T07:14:58.210Z,94955.00
2024-03-06T07:15:58.231Z,94955.00
2024-03-06T07:16:58.258Z,94953.00
2024-03-06T07:17:58.366Z,94952.00
2024-03-06T07:18:58.209Z,94956.00
2024-03-06T07:19:58.249Z,94951.00
2024-03-06T07:20:58.227Z,94950.00
2024-03-06T07:21:58.251Z,94952.00
2024-03-06T07:22:58.260Z,94950.00
2024-03-06T07:23:58.196Z,94954.00
2024-03-06T07:24:58.209Z,94953.00
2024-03-06T07:25:58.292Z,94954.00
2024-03-06T07:26:58.225Z,94954.00
2024-03-06T07:27:58.246Z,94950.00
2024-03-06T07:28:58.275Z,94952.00
2024-03-06T07:29:58.245Z,94961.00
2024-03-06T07:30:58.242Z,94962.00
2024-03-06T07:31:58.294Z,94964.00
2024-03-06T07:32:58.278Z,94967.00
2024-03-06T07:33:58.280Z,94967.00
2024-03-06T07:34:58.274Z,94969.00
2024-03-06T07:35:58.271Z,94974.00
2024-03-06T07:36:58.851Z,94970.00
2024-03-06T07:37:58.287Z,94976.00
2024-03-06T07:38:58.253Z,94972.00
2024-03-06T07:39:58.278Z,94974.00
2024-03-06T07:40:58.338Z,94975.00
2024-03-06T07:41:58.283Z,94979.00
2024-03-06T07:42:58.271Z,94979.00
2024-03-06T07:43:58.274Z,94984.00
2024-03-06T07:44:58.256Z,94983.00
2024-03-06T07:45:58.256Z,94989.00
2024-03-06T07:46:58.317Z,94985.00
2024-03-06T07:47:58.370Z,94989.00
2024-03-06T07:48:58.240Z,94993.00
2024-03-06T07:49:58.319Z,94997.00
2024-03-06T07:50:58.260Z,94998.00
2024-03-06T07:51:58.324Z,94999.00
2024-03-06T07:52:58.383Z,95002.00
2024-03-06T07:53:58.260Z,94997.00
2024-03-06T07:54:58.269Z,95002.00
2024-03-06T07:55:58.323Z,95003.00
2024-03-06T07:56:58.354Z,95002.00
2024-03-06T07:57:58.355Z,95003.00
2024-03-06T07:58:58.473Z,95004.00
2024-03-06T07:59:58.437Z,95004.00
2024-03-06T08:00:58.492Z,95005.00
2024-03-06T08:01:58.601Z,95007.00
2024-03-06T08:02:58.639Z,95006.00
2024-03-06T08:03:58.666Z,95007.00
2024-03-06T08:04:58.714Z,95009.00
2024-03-06T08:05:58.754Z,95012.00
2024-03-06T08:06:58.831Z,95011.00
2024-03-06T08:07:58.909Z,95014.00
2024-03-06T08:09:01.107Z,95012.00
2024-03-06T08:09:58.906Z,95011.00
2024-03-06T08:10:58.964Z,95009.00
2024-03-06T08:11:59.070Z,95010.00
2024-03-06T08:12:58.903Z,95011.00
2024-03-06T08:13:58.964Z,95010.00
2024-03-06T08:14:58.917Z,95011.00
2024-03-06T08:15:58.885Z,95011.00
2024-03-06T08:16:58.929Z,95015.00
2024-03-06T08:17:58.953Z,95015.00
2024-03-06T08:18:58.905Z,95016.00
2024-03-06T08:19:58.962Z,95015.00
2024-03-06T08:20:58.912Z,95022.00
2024-03-06T08:21:58.983Z,95015.00
2024-03-06T08:22:59.003Z,95013.00
2024-03-06T08:23:58.901Z,95014.00
2024-03-06T08:24:58.899Z,95012.00
2024-03-06T08:25:58.905Z,95016.00
2024-03-06T08:26:58.910Z,95016.00
2024-03-06T08:27:58.901Z,95016.00
2024-03-06T08:28:58.962Z,95017.00
2024-03-06T08:29:58.937Z,95015.00
2024-03-06T08:30:58.920Z,95016.00
2024-03-06T08:31:58.937Z,95019.00
2024-03-06T08:32:59.083Z,95016.00
2024-03-06T08:33:58.993Z,95017.00
2024-03-06T08:34:58.948Z,95018.00
2024-03-06T08:35:59.006Z,95020.00
2024-03-06T08:36:58.960Z,95021.00
2024-03-06T08:37:59.008Z,95022.00
2024-03-06T08:38:58.942Z,95027.00
2024-03-06T08:39:58.932Z,95022.00
2024-03-06T08:40:59.024Z,95019.00
2024-03-06T08:41:58.996Z,95025.00
2024-03-06T08:42:59.033Z,95023.00
2024-03-06T08:43:59.095Z,95023.00
2024-03-06T08:44:59.131Z,95023.00
2024-03-06T08:45:59.185Z,95023.00
2024-03-06T08:46:59.769Z,95024.00
2024-03-06T08:47:59.310Z,95029.00
2024-03-06T08:49:03.203Z,95023.00
2024-03-06T08:50:00.355Z,95027.00
2024-03-06T08:50:59.326Z,95026.00
2024-03-06T08:51:59.311Z,95023.00
2024-03-06T08:52:59.419Z,95024.00
2024-03-06T08:53:59.330Z,95026.00
2024-03-06T08:54:59.325Z,95028.00
2024-03-06T08:55:59.349Z,95027.00
2024-03-06T08:56:59.351Z,95030.00
2024-03-06T08:57:59.354Z,95030.00
2024-03-06T08:58:59.358Z,95031.00
2024-03-06T08:59:59.382Z,95030.00
2024-03-06T09:00:59.423Z,95031.00
2024-03-06T09:01:59.500Z,95032.00
2024-03-06T09:02:59.503Z,95033.00
2024-03-06T09:03:59.580Z,95034.00
2024-03-06T09:04:59.724Z,95036.00
2024-03-06T09:05:59.681Z,95036.00
2024-03-06T09:06:59.711Z,95038.00
2024-03-06T09:08:02.399Z,95039.00
2024-03-06T09:08:59.775Z,95042.00
2024-03-06T09:09:59.773Z,95043.00
2024-03-06T09:10:59.814Z,95043.00
2024-03-06T09:11:59.765Z,95046.00
2024-03-06T09:12:59.759Z,95048.00
2024-03-06T09:14:00.784Z,95046.00
2024-03-06T09:14:59.763Z,95045.00
2024-03-06T09:15:59.803Z,95045.00
2024-03-06T09:16:59.841Z,95045.00
2024-03-06T09:17:59.944Z,95048.00
2024-03-06T09:18:59.741Z,95049.00
2024-03-06T09:20:08.406Z,95052.00
2024-03-06T09:21:00.872Z,95054.00
2024-03-06T09:21:59.820Z,95055.00
2024-03-06T09:22:59.850Z,95058.00
2024-03-06T09:23:59.784Z,95058.00
2024-03-06T09:24:59.795Z,95060.00
2024-03-06T09:25:59.855Z,95060.00
2024-03-06T09:26:59.802Z,95061.00
2024-03-06T09:27:59.806Z,95062.00
2024-03-06T09:28:59.845Z,95062.00
2024-03-06T09:29:59.794Z,95061.00
2024-03-06T09:30:59.805Z,95060.00
2024-03-06T09:31:59.913Z,95061.00
2024-03-06T09:33:00.102Z,95061.00
2024-03-06T09:33:59.935Z,95058.00
2024-03-06T09:35:00.356Z,95057.00
2024-03-06T09:36:00.097Z,95057.00
2024-03-06T09:37:00.128Z,95056.00
2024-03-06T09:38:00.163Z,95055.00
2024-03-06T09:39:00.167Z,95054.00
2024-03-06T09:40:00.256Z,95052.00
2024-03-06T09:41:00.290Z,95050.00
2024-03-06T09:42:00.346Z,95050.00
2024-03-06T09:43:00.383Z,95049.00
2024-03-06T09:44:00.407Z,95048.00
2024-03-06T09:45:00.438Z,95046.00
2024-03-06T09:46:00.566Z,95045.00
2024-03-06T09:47:00.557Z,95048.00
2024-03-06T09:48:00.732Z,95047.00
2024-03-06T09:49:00.569Z,95048.00
2024-03-06T09:50:01.659Z,95050.00
2024-03-06T09:51:00.635Z,95053.00
2024-03-06T09:52:00.685Z,95054.00
2024-03-06T09:53:00.736Z,95052.00
2024-03-06T09:54:00.703Z,95055.00
2024-03-06T09:55:00.753Z,95055.00
2024-03-06T09:56:00.845Z,95054.00
2024-03-06T09:57:00.728Z,95055.00
2024-03-06T09:58:00.747Z,95055.00
2024-03-06T09:59:00.817Z,95056.00
2024-03-06T10:00:00.817Z,95056.00
2024-03-06T10:01:00.818Z,95055.00
2024-03-06T10:02:00.861Z,95056.00
2024-03-06T10:03:00.795Z,95056.00
2024-03-06T10:04:00.799Z,95057.00
2024-03-06T10:05:00.965Z,95058.00
2024-03-06T10:06:04.456Z,95058.00
2024-03-06T10:07:01.902Z,95059.00
2024-03-06T10:08:00.932Z,95061.00
2024-03-06T10:09:00.903Z,95061.00
2024-03-06T10:10:00.922Z,95063.00
2024-03-06T10:11:00.976Z,95065.00
2024-03-06T10:12:04.702Z,95061.00
2024-03-06T10:13:01.932Z,95061.00
2024-03-06T10:14:00.933Z,95063.00
2024-03-06T10:15:00.934Z,95065.00
2024-03-06T10:16:00.957Z,95067.00
2024-03-06T10:17:01.008Z,95065.00
2024-03-06T10:18:00.972Z,95066.00
2024-03-06T10:19:00.957Z,95063.00
2024-03-06T10:20:00.989Z,95062.00
2024-03-06T10:21:01.756Z,95061.00
2024-03-06T10:22:01.027Z,95060.00
2024-03-06T10:23:01.075Z,95057.00
2024-03-06T10:24:01.109Z,95054.00
2024-03-06T10:25:01.242Z,95058.00
2024-03-06T10:26:01.353Z,95054.00
2024-03-06T10:27:01.331Z,95054.00
2024-03-06T10:28:01.402Z,95054.00
2024-03-06T10:29:01.464Z,95053.00
2024-03-06T10:30:04.293Z,95053.00
2024-03-06T10:31:01.535Z,95052.00
2024-03-06T10:32:01.635Z,95054.00
2024-03-06T10:33:01.696Z,95052.00
2024-03-06T10:34:01.568Z,95050.00
2024-03-06T10:35:01.639Z,95049.00
2024-03-06T10:36:05.138Z,95052.00
2024-03-06T10:37:01.548Z,95054.00
2024-03-06T10:38:01.570Z,95052.00
2024-03-06T10:39:01.604Z,95054.00
2024-03-06T10:40:01.553Z,95058.00
2024-03-06T10:41:01.602Z,95054.00
2024-03-06T10:42:01.531Z,95051.00
2024-03-06T10:43:01.595Z,95055.00
2024-03-06T10:44:01.563Z,95056.00
2024-03-06T10:45:01.610Z,95054.00
2024-03-06T10:46:01.614Z,95057.00
2024-03-06T10:47:01.705Z,95053.00
2024-03-06T10:48:04.222Z,95052.00
2024-03-06T10:49:01.565Z,95053.00
2024-03-06T10:50:01.978Z,95053.00
2024-03-06T10:51:01.567Z,95052.00
2024-03-06T10:52:01.601Z,95052.00
2024-03-06T10:53:01.615Z,95053.00
2024-03-06T10:54:01.635Z,95056.00
2024-03-06T10:55:01.598Z,95054.00
2024-03-06T10:56:01.665Z,95052.00
2024-03-06T10:57:01.591Z,95052.00
2024-03-06T10:58:01.599Z,95052.00
2024-03-06T10:59:01.664Z,95051.00
2024-03-06T11:00:04.512Z,95052.00
2024-03-06T11:01:01.635Z,95051.00
2024-03-06T11:02:01.705Z,95052.00
2024-03-06T11:03:01.598Z,95050.00
2024-03-06T11:04:01.634Z,95049.00
2024-03-06T11:05:01.705Z,95047.00
2024-03-06T11:06:04.963Z,95043.00
2024-03-06T11:07:01.613Z,95044.00
2024-03-06T11:08:01.664Z,95042.00
2024-03-06T11:09:01.621Z,95042.00
2024-03-06T11:10:01.652Z,95040.00
2024-03-06T11:11:01.664Z,95040.00
2024-03-06T11:12:01.678Z,95041.00
2024-03-06T11:13:01.609Z,95038.00
2024-03-06T11:14:01.665Z,95041.00
2024-03-06T11:15:01.609Z,95039.00
2024-03-06T11:16:01.613Z,95039.00
2024-03-06T11:17:01.670Z,95039.00
2024-03-06T11:18:04.134Z,95040.00
2024-03-06T11:19:01.857Z,95039.00
2024-03-06T11:20:02.369Z,95040.00
2024-03-06T11:21:01.859Z,95041.00
2024-03-06T11:22:01.868Z,95040.00
2024-03-06T11:23:01.910Z,95042.00
2024-03-06T11:24:04.722Z,95040.00
2024-03-06T11:25:01.925Z,95039.00
2024-03-06T11:26:01.993Z,95039.00
2024-03-06T11:27:02.011Z,95036.00
2024-03-06T11:28:01.929Z,95035.00
2024-03-06T11:29:01.940Z,95033.00
2024-03-06T11:30:04.539Z,95033.00
2024-03-06T11:31:01.956Z,95031.00
2024-03-06T11:32:01.980Z,95032.00
2024-03-06T11:33:02.329Z,95031.00
2024-03-06T11:34:02.035Z,95030.00
2024-03-06T11:35:01.897Z,95028.00
2024-03-06T11:36:05.022Z,95030.00
2024-03-06T11:37:01.918Z,95027.00
2024-03-06T11:38:01.985Z,95028.00
2024-03-06T11:39:01.989Z,95028.00
2024-03-06T11:40:01.939Z,95028.00
2024-03-06T11:41:01.991Z,95026.00
2024-03-06T11:42:01.978Z,95024.00
2024-03-06T11:43:01.925Z,95024.00
2024-03-06T11:44:02.105Z,95022.00
2024-03-06T11:45:01.901Z,95024.00
2024-03-06T11:46:01.914Z,95025.00
2024-03-06T11:47:02.016Z,95024.00
2024-03-06T11:48:02.071Z,95023.00
2024-03-06T11:49:01.927Z,95023.00
2024-03-06T11:50:01.967Z,95020.00
2024-03-06T11:51:04.744Z,95024.00
2024-03-06T11:52:01.919Z,95023.00
2024-03-06T11:53:01.997Z,95024.00
2024-03-06T11:54:01.941Z,95022.00
2024-03-06T11:55:01.940Z,95022.00
2024-03-06T11:56:01.954Z,95024.00
2024-03-06T11:57:01.945Z,95024.00
2024-03-06T11:58:01.957Z,95022.00
2024-03-06T11:59:01.994Z,95023.00
2024-03-06T12:00:01.927Z,95024.00
2024-03-06T12:01:01.979Z,95024.00
2024-03-06T12:02:02.005Z,95023.00
2024-03-06T12:03:01.980Z,95023.00
2024-03-06T12:04:04.910Z,95023.00
2024-03-06T12:05:01.931Z,95025.00
2024-03-06T12:06:01.953Z,95026.00
2024-03-06T12:07:01.969Z,95027.00
2024-03-06T12:08:01.938Z,95025.00
2024-03-06T12:09:01.929Z,95028.00
2024-03-06T12:10:01.968Z,95026.00
2024-03-06T12:11:02.036Z,95025.00
2024-03-06T12:12:02.124Z,95023.00
2024-03-06T12:13:01.961Z,95020.00
2024-03-06T12:14:01.986Z,95019.00
2024-03-06T12:15:02.057Z,95022.00
2024-03-06T12:16:04.727Z,95023.00
2024-03-06T12:17:02.031Z,95027.00
2024-03-06T12:18:02.071Z,95026.00
2024-03-06T12:19:02.014Z,95025.00
2024-03-06T12:20:02.087Z,95028.00
2024-03-06T12:21:01.934Z,95025.00
2024-03-06T12:22:04.670Z,95028.00
2024-03-06T12:23:02.011Z,95028.00
2024-03-06T12:24:01.974Z,95024.00
2024-03-06T12:25:02.023Z,95028.00
2024-03-06T12:26:06.102Z,95026.00
2024-03-06T12:27:01.967Z,95028.00
2024-03-06T12:28:01.975Z,95028.00
2024-03-06T12:29:01.995Z,95026.00
2024-03-06T12:30:02.096Z,95024.00
2024-03-06T12:31:01.962Z,95029.00
2024-03-06T12:32:02.109Z,95029.00
2024-03-06T12:33:02.059Z,95028.00
2024-03-06T12:34:04.760Z,95029.00
2024-03-06T12:35:02.488Z,95029.00
2024-03-06T12:36:01.995Z,95028.00
2024-03-06T12:37:02.032Z,95027.00
2024-03-06T12:38:02.857Z,95027.00
2024-03-06T12:39:02.002Z,95026.00
2024-03-06T12:40:02.091Z,95026.00